sensor_id;sensor_type;location;lat;lon;timestamp;pressure;altitude;pressure_sealevel;temperature;humidity
12475;BME280;6302;42.624;23.334;2023-07-16T00:00:54;93579.00;;;24.36;100.00
12475;BME280;6302;42.624;23.334;2023-07-16T00:03:21;93584.88;;;24.34;100.00
12475;BME280;6302;42.624;23.334;2023-07-16T00:05:49;93581.84;;;24.27;100.00
12475;BME280;6302;42.624;23.334;2023-07-16T00:08:16;93580.34;;;24.26;100.00
12475;BME280;6302;42.624;23.334;2023-07-16T00:10:44;93575.31;;;24.19;100.00
12475;BME280;6302;42.624;23.334;2023-07-16T00:13:11;93573.81;;;24.18;100.00
12475;BME280;6302;42.624;23.334;2023-07-16T00:15:38;93576.75;;;24.14;100.00
12475;BME280;6302;42.624;23.334;2023-07-16T00:18:05;93578.69;;;24.14;100.00
12475;BME280;6302;42.624;23.334;2023-07-16T00:20:32;93577.19;;;24.13;100.00
12475;BME280;6302;42.624;23.334;2023-07-16T00:22:58;93581.31;;;24.08;100.00
12475;BME280;6302;42.624;23.334;2023-07-16T00:25:25;93585.06;;;24.11;100.00
12475;BME280;6302;42.624;23.334;2023-07-16T00:27:53;93584.03;;;24.08;100.00
12475;BME280;6302;42.624;23.334;2023-07-16T00:30:20;93586.34;;;24.01;100.00
12475;BME280;6302;42.624;23.334;2023-07-16T00:32:47;93589.06;;;24.01;100.00
12475;BME280;6302;42.624;23.334;2023-07-16T00:35:14;93586.84;;;23.99;100.00
12475;BME280;6302;42.624;23.334;2023-07-16T00:37:40;93582.09;;;23.94;100.00
12475;BME280;6302;42.624;23.334;2023-07-16T00:40:08;93587.41;;;23.88;100.00
12475;BME280;6302;42.624;23.334;2023-07-16T00:42:35;93588.34;;;23.85;100.00
12475;BME280;6302;42.624;23.334;2023-07-16T00:45:09;93590.50;;;23.81;100.00
12475;BME280;6302;42.624;23.334;2023-07-16T00:47:37;93582.38;;;23.81;100.00
12475;BME280;6302;42.624;23.334;2023-07-16T00:50:05;93575.94;;;23.79;100.00
12475;BME280;6302;42.624;23.334;2023-07-16T00:52:33;93583.59;;;23.80;100.00
12475;BME280;6302;42.624;23.334;2023-07-16T00:54:59;93585.75;;;23.76;100.00
12475;BME280;6302;42.624;23.334;2023-07-16T00:57:26;93581.66;;;23.66;100.00
12475;BME280;6302;42.624;23.334;2023-07-16T00:59:53;93578.41;;;23.62;100.00
12475;BME280;6302;42.624;23.334;2023-07-16T01:02:21;93568.69;;;23.56;100.00
12475;BME280;6302;42.624;23.334;2023-07-16T01:04:50;93573.91;;;23.59;100.00
12475;BME280;6302;42.624;23.334;2023-07-16T01:07:18;93573.63;;;23.57;100.00
12475;BME280;6302;42.624;23.334;2023-07-16T01:09:47;93576.53;;;23.54;100.00
12475;BME280;6302;42.624;23.334;2023-07-16T01:12:15;93576.91;;;23.47;100.00
12475;BME280;6302;42.624;23.334;2023-07-16T01:14:42;93574.09;;;23.41;100.00
12475;BME280;6302;42.624;23.334;2023-07-16T01:17:08;93581.19;;;23.39;100.00
12475;BME280;6302;42.624;23.334;2023-07-16T01:19:37;93584.16;;;23.41;100.00
12475;BME280;6302;42.624;23.334;2023-07-16T01:22:15;93576.53;;;23.39;100.00
12475;BME280;6302;42.624;23.334;2023-07-16T01:24:59;93576.53;;;23.39;100.00
12475;BME280;6302;42.624;23.334;2023-07-16T01:27:52;93576.81;;;23.41;100.00
12475;BME280;6302;42.624;23.334;2023-07-16T01:30:26;93578.97;;;23.37;100.00
12475;BME280;6302;42.624;23.334;2023-07-16T01:32:55;93578.66;;;23.35;100.00
12475;BME280;6302;42.624;23.334;2023-07-16T01:35:23;93568.59;;;23.36;100.00
12475;BME280;6302;42.624;23.334;2023-07-16T01:37:50;93572.22;;;23.33;100.00
12475;BME280;6302;42.624;23.334;2023-07-16T01:40:16;93568.22;;;23.28;100.00
12475;BME280;6302;42.624;23.334;2023-07-16T01:42:43;93566.44;;;23.25;100.00
12475;BME280;6302;42.624;23.334;2023-07-16T01:45:10;93572.94;;;23.18;100.00
12475;BME280;6302;42.624;23.334;2023-07-16T01:47:49;93567.44;;;23.13;100.00
12475;BME280;6302;42.624;23.334;2023-07-16T01:50:20;93579.19;;;23.10;100.00
12475;BME280;6302;42.624;23.334;2023-07-16T01:52:46;93578.63;;;23.06;100.00
12475;BME280;6302;42.624;23.334;2023-07-16T01:55:14;93572.38;;;23.00;100.00
12475;BME280;6302;42.624;23.334;2023-07-16T01:57:40;93579.16;;;22.95;100.00
12475;BME280;6302;42.624;23.334;2023-07-16T02:00:08;93586.41;;;22.89;100.00
12475;BME280;6302;42.624;23.334;2023-07-16T02:02:35;93593.22;;;22.85;100.00
12475;BME280;6302;42.624;23.334;2023-07-16T02:05:04;93590.22;;;22.83;100.00
12475;BME280;6302;42.624;23.334;2023-07-16T02:07:30;93585.00;;;22.79;100.00
12475;BME280;6302;42.624;23.334;2023-07-16T02:09:57;93578.56;;;22.77;100.00
12475;BME280;6302;42.624;23.334;2023-07-16T02:12:24;93580.34;;;22.80;100.00
12475;BME280;6302;42.624;23.334;2023-07-16T02:14:51;93578.84;;;22.79;100.00
12475;BME280;6302;42.624;23.334;2023-07-16T02:17:17;93582.75;;;22.78;100.00
12475;BME280;6302;42.624;23.334;2023-07-16T02:19:44;93567.25;;;22.63;100.00
12475;BME280;6302;42.624;23.334;2023-07-16T02:22:12;93569.88;;;22.73;100.00
12475;BME280;6302;42.624;23.334;2023-07-16T02:24:39;93584.16;;;22.73;100.00
12475;BME280;6302;42.624;23.334;2023-07-16T02:27:06;93579.19;;;22.72;100.00
12475;BME280;6302;42.624;23.334;2023-07-16T02:29:33;93578.91;;;22.70;100.00
12475;BME280;6302;42.624;23.334;2023-07-16T02:32:00;93577.59;;;22.65;100.00
12475;BME280;6302;42.624;23.334;2023-07-16T02:34:26;93588.88;;;22.63;100.00
12475;BME280;6302;42.624;23.334;2023-07-16T02:36:53;93583.91;;;22.62;100.00
12475;BME280;6302;42.624;23.334;2023-07-16T02:39:21;93591.44;;;22.58;100.00
12475;BME280;6302;42.624;23.334;2023-07-16T02:41:48;93587.41;;;22.53;100.00
12475;BME280;6302;42.624;23.334;2023-07-16T02:44:15;93585.47;;;22.54;100.00
12475;BME280;6302;42.624;23.334;2023-07-16T02:46:42;93588.31;;;22.50;100.00
12475;BME280;6302;42.624;23.334;2023-07-16T02:49:09;93584.13;;;22.49;100.00
12475;BME280;6302;42.624;23.334;2023-07-16T02:51:36;93586.53;;;22.47;100.00
12475;BME280;6302;42.624;23.334;2023-07-16T02:54:03;93592.13;;;22.44;100.00
12475;BME280;6302;42.624;23.334;2023-07-16T02:56:31;93584.47;;;22.42;100.00
12475;BME280;6302;42.624;23.334;2023-07-16T02:58:58;93588.41;;;22.41;100.00
12475;BME280;6302;42.624;23.334;2023-07-16T03:01:25;93587.81;;;22.37;100.00
12475;BME280;6302;42.624;23.334;2023-07-16T03:03:52;93589.31;;;22.38;100.00
12475;BME280;6302;42.624;23.334;2023-07-16T03:06:18;93586.88;;;22.40;100.00
12475;BME280;6302;42.624;23.334;2023-07-16T03:08:45;93592.00;;;22.38;100.00
12475;BME280;6302;42.624;23.334;2023-07-16T03:11:12;93589.31;;;22.38;100.00
12475;BME280;6302;42.624;23.334;2023-07-16T03:13:40;93589.03;;;22.36;100.00
12475;BME280;6302;42.624;23.334;2023-07-16T03:16:07;93590.22;;;22.35;100.00
12475;BME280;6302;42.624;23.334;2023-07-16T03:18:34;93600.25;;;22.35;100.00
12475;BME280;6302;42.624;23.334;2023-07-16T03:21:00;93599.63;;;22.40;100.00
12475;BME280;6302;42.624;23.334;2023-07-16T03:23:27;93606.06;;;22.42;100.00
12475;BME280;6302;42.624;23.334;2023-07-16T03:25:54;93603.97;;;22.46;100.00
12475;BME280;6302;42.624;23.334;2023-07-16T03:28:21;93604.53;;;22.50;100.00
12475;BME280;6302;42.624;23.334;2023-07-16T03:30:50;93604.81;;;22.52;100.00
12475;BME280;6302;42.624;23.334;2023-07-16T03:33:17;93609.16;;;22.59;100.00
12475;BME280;6302;42.624;23.334;2023-07-16T03:35:45;93602.06;;;22.61;100.00
12475;BME280;6302;42.624;23.334;2023-07-16T03:38:12;93608.97;;;22.62;100.00
12475;BME280;6302;42.624;23.334;2023-07-16T03:40:39;93610.13;;;22.71;100.00
12475;BME280;6302;42.624;23.334;2023-07-16T03:43:06;93616.38;;;22.77;100.00
12475;BME280;6302;42.624;23.334;2023-07-16T03:45:33;93615.75;;;22.82;100.00
12475;BME280;6302;42.624;23.334;2023-07-16T03:48:01;93608.84;;;22.81;100.00
12475;BME280;6302;42.624;23.334;2023-07-16T03:50:28;93621.38;;;22.93;100.00
12475;BME280;6302;42.624;23.334;2023-07-16T03:52:55;93614.59;;;22.97;100.00
12475;BME280;6302;42.624;23.334;2023-07-16T03:55:22;93621.56;;;23.04;100.00
12475;BME280;6302;42.624;23.334;2023-07-16T03:57:48;93617.31;;;23.12;100.00
12475;BME280;6302;42.624;23.334;2023-07-16T04:00:15;93624.63;;;23.20;100.00
12475;BME280;6302;42.624;23.334;2023-07-16T04:02:42;93623.50;;;23.27;100.00
12475;BME280;6302;42.624;23.334;2023-07-16T04:05:11;93620.72;;;23.36;100.00
12475;BME280;6302;42.624;23.334;2023-07-16T04:07:37;93619.91;;;23.45;100.00
12475;BME280;6302;42.624;23.334;2023-07-16T04:10:05;93621.47;;;23.51;100.00
12475;BME280;6302;42.624;23.334;2023-07-16T04:12:32;93622.34;;;23.57;100.00
12475;BME280;6302;42.624;23.334;2023-07-16T04:14:59;93621.03;;;23.53;100.00
12475;BME280;6302;42.624;23.334;2023-07-16T04:17:26;93622.78;;;23.56;100.00
12475;BME280;6302;42.624;23.334;2023-07-16T04:19:53;93618.69;;;23.60;100.00
12475;BME280;6302;42.624;23.334;2023-07-16T04:22:21;93633.59;;;23.70;100.00
12475;BME280;6302;42.624;23.334;2023-07-16T04:24:47;93629.97;;;23.73;100.00
12475;BME280;6302;42.624;23.334;2023-07-16T04:27:14;93606.94;;;23.63;100.00
12475;BME280;6302;42.624;23.334;2023-07-16T04:29:41;93636.78;;;23.83;100.00
12475;BME280;6302;42.624;23.334;2023-07-16T04:32:08;93637.06;;;23.85;100.00
12475;BME280;6302;42.624;23.334;2023-07-16T04:34:35;93632.75;;;23.93;100.00
12475;BME280;6302;42.624;23.334;2023-07-16T04:37:01;93631.91;;;24.02;100.00
12475;BME280;6302;42.624;23.334;2023-07-16T04:39:29;93633.41;;;24.03;100.00
12475;BME280;6302;42.624;23.334;2023-07-16T04:41:56;93644.63;;;24.11;100.00
12475;BME280;6302;42.624;23.334;2023-07-16T04:44:23;93640.84;;;24.23;100.00
12475;BME280;6302;42.624;23.334;2023-07-16T04:46:50;93635.16;;;24.21;100.00
12475;BME280;6302;42.624;23.334;2023-07-16T04:49:17;93639.00;;;24.29;100.00
12475;BME280;6302;42.624;23.334;2023-07-16T04:51:43;93646.13;;;24.46;100.00
12475;BME280;6302;42.624;23.334;2023-07-16T04:54:10;93650.09;;;24.66;100.00
12475;BME280;6302;42.624;23.334;2023-07-16T04:56:39;93645.94;;;24.70;100.00
12475;BME280;6302;42.624;23.334;2023-07-16T04:59:05;93651.81;;;24.83;100.00
12475;BME280;6302;42.624;23.334;2023-07-16T05:01:32;93654.66;;;24.94;100.00
12475;BME280;6302;42.624;23.334;2023-07-16T05:04:00;93658.47;;;25.02;100.00
12475;BME280;6302;42.624;23.334;2023-07-16T05:06:27;93658.28;;;25.06;100.00
12475;BME280;6302;42.624;23.334;2023-07-16T05:08:53;93659.22;;;25.03;100.00
12475;BME280;6302;42.624;23.334;2023-07-16T05:11:20;93652.09;;;25.05;100.00
12475;BME280;6302;42.624;23.334;2023-07-16T05:13:50;93660.25;;;25.31;100.00
12475;BME280;6302;42.624;23.334;2023-07-16T05:16:16;93660.19;;;25.46;100.00
12475;BME280;6302;42.624;23.334;2023-07-16T05:18:43;93653.56;;;25.47;100.00
12475;BME280;6302;42.624;23.334;2023-07-16T05:21:10;93661.06;;;25.57;100.00
12475;BME280;6302;42.624;23.334;2023-07-16T05:23:37;93653.09;;;25.74;100.00
12475;BME280;6302;42.624;23.334;2023-07-16T05:26:04;93657.81;;;25.79;100.00
12475;BME280;6302;42.624;23.334;2023-07-16T05:28:30;93655.41;;;25.87;100.00
12475;BME280;6302;42.624;23.334;2023-07-16T05:30:59;93660.09;;;25.86;100.00
12475;BME280;6302;42.624;23.334;2023-07-16T05:33:26;93655.88;;;25.85;100.00
12475;BME280;6302;42.624;23.334;2023-07-16T05:35:53;93658.81;;;25.81;100.00
12475;BME280;6302;42.624;23.334;2023-07-16T05:38:20;93655.78;;;26.00;100.00
12475;BME280;6302;42.624;23.334;2023-07-16T05:40:48;93654.19;;;26.13;100.00
12475;BME280;6302;42.624;23.334;2023-07-16T05:43:15;93661.09;;;26.14;100.00
12475;BME280;6302;42.624;23.334;2023-07-16T05:45:41;93662.13;;;26.22;100.00
12475;BME280;6302;42.624;23.334;2023-07-16T05:48:10;93668.81;;;26.21;100.00
12475;BME280;6302;42.624;23.334;2023-07-16T05:50:37;93665.91;;;26.30;100.00
12475;BME280;6302;42.624;23.334;2023-07-16T05:53:03;93668.72;;;26.41;100.00
12475;BME280;6302;42.624;23.334;2023-07-16T05:55:30;93678.88;;;26.46;100.00
12475;BME280;6302;42.624;23.334;2023-07-16T05:57:57;93677.69;;;26.53;100.00
12475;BME280;6302;42.624;23.334;2023-07-16T06:00:24;93689.31;;;26.54;100.00
12475;BME280;6302;42.624;23.334;2023-07-16T06:02:50;93679.91;;;26.55;100.00
12475;BME280;6302;42.624;23.334;2023-07-16T06:05:19;93678.22;;;26.63;100.00
12475;BME280;6302;42.624;23.334;2023-07-16T06:07:45;93678.84;;;26.78;100.00
12475;BME280;6302;42.624;23.334;2023-07-16T06:10:12;93672.16;;;26.79;100.00
12475;BME280;6302;42.624;23.334;2023-07-16T06:12:39;93681.81;;;26.80;100.00
12475;BME280;6302;42.624;23.334;2023-07-16T06:15:07;93680.59;;;26.81;100.00
12475;BME280;6302;42.624;23.334;2023-07-16T06:17:35;93679.16;;;26.91;100.00
12475;BME280;6302;42.624;23.334;2023-07-16T06:20:02;93692.44;;;26.78;100.00
12475;BME280;6302;42.624;23.334;2023-07-16T06:22:30;93685.78;;;26.84;100.00
12475;BME280;6302;42.624;23.334;2023-07-16T06:24:57;93682.13;;;26.93;100.00
12475;BME280;6302;42.624;23.334;2023-07-16T06:27:24;93674.63;;;26.77;100.00
12475;BME280;6302;42.624;23.334;2023-07-16T06:29:51;93682.78;;;26.77;100.00
12475;BME280;6302;42.624;23.334;2023-07-16T06:32:18;93675.66;;;26.85;100.00
12475;BME280;6302;42.624;23.334;2023-07-16T06:34:45;93680.69;;;26.61;100.00
12475;BME280;6302;42.624;23.334;2023-07-16T06:37:12;93679.13;;;26.48;100.00
12475;BME280;6302;42.624;23.334;2023-07-16T06:39:40;93681.06;;;26.42;100.00
12475;BME280;6302;42.624;23.334;2023-07-16T06:42:07;93678.28;;;26.31;100.00
12475;BME280;6302;42.624;23.334;2023-07-16T06:44:34;93674.88;;;26.42;100.00
12475;BME280;6302;42.624;23.334;2023-07-16T06:47:01;93675.41;;;26.46;100.00
12475;BME280;6302;42.624;23.334;2023-07-16T06:49:29;93674.00;;;26.62;100.00
12475;BME280;6302;42.624;23.334;2023-07-16T06:51:56;93668.56;;;26.62;100.00
12475;BME280;6302;42.624;23.334;2023-07-16T06:54:23;93666.44;;;26.71;100.00
12475;BME280;6302;42.624;23.334;2023-07-16T06:56:51;93672.59;;;26.72;100.00
12475;BME280;6302;42.624;23.334;2023-07-16T06:59:18;93673.16;;;26.81;100.00
12475;BME280;6302;42.624;23.334;2023-07-16T07:01:45;93671.63;;;26.75;100.00
12475;BME280;6302;42.624;23.334;2023-07-16T07:04:12;93675.41;;;26.83;100.00
12475;BME280;6302;42.624;23.334;2023-07-16T07:06:40;93678.16;;;26.94;100.00
12475;BME280;6302;42.624;23.334;2023-07-16T07:09:06;93675.66;;;26.85;100.00
12475;BME280;6302;42.624;23.334;2023-07-16T07:11:33;93671.97;;;26.88;100.00
12475;BME280;6302;42.624;23.334;2023-07-16T07:14:01;93671.25;;;26.93;100.00
12475;BME280;6302;42.624;23.334;2023-07-16T07:16:28;93673.44;;;26.83;100.00
12475;BME280;6302;42.624;23.334;2023-07-16T07:18:56;93672.72;;;26.94;100.00
12475;BME280;6302;42.624;23.334;2023-07-16T07:21:23;93679.66;;;26.95;100.00
12475;BME280;6302;42.624;23.334;2023-07-16T07:23:49;93668.03;;;26.94;100.00
12475;BME280;6302;42.624;23.334;2023-07-16T07:26:16;93671.78;;;27.02;100.00
12475;BME280;6302;42.624;23.334;2023-07-16T07:28:43;93670.38;;;27.24;100.00
12475;BME280;6302;42.624;23.334;2023-07-16T07:31:11;93671.50;;;27.43;100.00
12475;BME280;6302;42.624;23.334;2023-07-16T07:33:38;93674.47;;;27.50;100.00
12475;BME280;6302;42.624;23.334;2023-07-16T07:36:05;93673.25;;;27.57;99.03
12475;BME280;6302;42.624;23.334;2023-07-16T07:38:31;93674.22;;;27.48;99.89
12475;BME280;6302;42.624;23.334;2023-07-16T07:40:58;93676.44;;;27.44;99.51
12475;BME280;6302;42.624;23.334;2023-07-16T07:43:26;93678.34;;;27.33;98.87
12475;BME280;6302;42.624;23.334;2023-07-16T07:45:53;93675.69;;;27.44;100.00
12475;BME280;6302;42.624;23.334;2023-07-16T07:48:21;93671.03;;;27.66;99.43
12475;BME280;6302;42.624;23.334;2023-07-16T07:50:48;93651.25;;;27.71;97.00
12475;BME280;6302;42.624;23.334;2023-07-16T07:53:16;93668.66;;;28.02;99.88
12475;BME280;6302;42.624;23.334;2023-07-16T07:55:44;93676.81;;;28.18;95.80
12475;BME280;6302;42.624;23.334;2023-07-16T07:58:11;93668.16;;;28.09;93.77
12475;BME280;6302;42.624;23.334;2023-07-16T08:00:38;93668.41;;;28.16;95.37
12475;BME280;6302;42.624;23.334;2023-07-16T08:03:04;93672.84;;;28.36;93.63
12475;BME280;6302;42.624;23.334;2023-07-16T08:05:33;93666.16;;;28.37;94.82
12475;BME280;6302;42.624;23.334;2023-07-16T08:08:00;93670.09;;;28.58;94.92
12475;BME280;6302;42.624;23.334;2023-07-16T08:10:26;93671.59;;;28.70;91.81
12475;BME280;6302;42.624;23.334;2023-07-16T08:12:53;93669.06;;;28.89;90.11
12475;BME280;6302;42.624;23.334;2023-07-16T08:15:20;93671.06;;;28.77;92.76
12475;BME280;6302;42.624;23.334;2023-07-16T08:17:47;93674.03;;;28.79;91.02
12475;BME280;6302;42.624;23.334;2023-07-16T08:20:14;93672.81;;;28.86;89.76
12475;BME280;6302;42.624;23.334;2023-07-16T08:22:42;93671.53;;;28.92;89.98
12475;BME280;6302;42.624;23.334;2023-07-16T08:25:09;93674.72;;;29.02;88.11
12475;BME280;6302;42.624;23.334;2023-07-16T08:27:37;93674.50;;;28.94;86.86
12475;BME280;6302;42.624;23.334;2023-07-16T08:30:04;93680.47;;;28.87;90.18
12475;BME280;6302;42.624;23.334;2023-07-16T08:32:31;93682.22;;;28.90;92.58
12475;BME280;6302;42.624;23.334;2023-07-16T08:34:58;93678.97;;;28.97;86.86
12475;BME280;6302;42.624;23.334;2023-07-16T08:37:26;93663.28;;;29.09;89.45
12475;BME280;6302;42.624;23.334;2023-07-16T08:39:55;93678.84;;;29.31;84.82
12475;BME280;6302;42.624;23.334;2023-07-16T08:42:22;93680.88;;;29.25;86.33
12475;BME280;6302;42.624;23.334;2023-07-16T08:44:50;93680.34;;;29.32;82.72
12475;BME280;6302;42.624;23.334;2023-07-16T08:47:17;93676.81;;;29.48;83.72
12475;BME280;6302;42.624;23.334;2023-07-16T08:49:53;93671.72;;;29.69;86.55
12475;BME280;6302;42.624;23.334;2023-07-16T08:52:20;93679.16;;;29.79;84.21
12475;BME280;6302;42.624;23.334;2023-07-16T08:54:47;93674.88;;;29.84;80.94
12475;BME280;6302;42.624;23.334;2023-07-16T08:57:16;93668.97;;;29.74;80.55
12475;BME280;6302;42.624;23.334;2023-07-16T08:59:47;93669.59;;;29.97;81.10
12475;BME280;6302;42.624;23.334;2023-07-16T09:02:15;93674.16;;;30.18;81.45
12475;BME280;6302;42.624;23.334;2023-07-16T09:04:43;93667.16;;;30.23;79.55
12475;BME280;6302;42.624;23.334;2023-07-16T09:07:10;93665.09;;;30.35;79.02
12475;BME280;6302;42.624;23.334;2023-07-16T09:09:37;93664.38;;;30.34;79.66
12475;BME280;6302;42.624;23.334;2023-07-16T09:12:05;93662.94;;;30.52;77.55
12475;BME280;6302;42.624;23.334;2023-07-16T09:14:33;93661.66;;;30.28;76.62
12475;BME280;6302;42.624;23.334;2023-07-16T09:17:00;93656.34;;;30.42;77.35
12475;BME280;6302;42.624;23.334;2023-07-16T09:19:32;93660.22;;;30.52;77.39
12475;BME280;6302;42.624;23.334;2023-07-16T09:21:58;93651.59;;;30.42;74.22
12475;BME280;6302;42.624;23.334;2023-07-16T09:24:25;93658.81;;;30.40;75.71
12475;BME280;6302;42.624;23.334;2023-07-16T09:26:53;93648.72;;;30.29;74.14
12475;BME280;6302;42.624;23.334;2023-07-16T09:29:21;93651.16;;;30.33;76.69
12475;BME280;6302;42.624;23.334;2023-07-16T09:31:54;93654.75;;;30.52;77.82
12475;BME280;6302;42.624;23.334;2023-07-16T09:34:21;93648.25;;;30.55;77.98
12475;BME280;6302;42.624;23.334;2023-07-16T09:36:48;93653.91;;;30.62;76.18
12475;BME280;6302;42.624;23.334;2023-07-16T09:39:16;93610.09;;;30.44;76.69
12475;BME280;6302;42.624;23.334;2023-07-16T09:41:44;93640.34;;;30.75;74.20
12475;BME280;6302;42.624;23.334;2023-07-16T09:44:12;93643.56;;;30.74;72.24
12475;BME280;6302;42.624;23.334;2023-07-16T09:46:41;93645.69;;;30.86;73.28
12475;BME280;6302;42.624;23.334;2023-07-16T09:49:09;93640.22;;;30.86;72.60
12475;BME280;6302;42.624;23.334;2023-07-16T09:51:37;93641.31;;;31.02;73.10
12475;BME280;6302;42.624;23.334;2023-07-16T09:54:05;93635.41;;;30.98;74.26
12475;BME280;6302;42.624;23.334;2023-07-16T09:56:36;93636.00;;;31.10;72.99
12475;BME280;6302;42.624;23.334;2023-07-16T09:59:07;93635.72;;;31.13;72.06
12475;BME280;6302;42.624;23.334;2023-07-16T10:01:36;93633.28;;;31.28;71.92
12475;BME280;6302;42.624;23.334;2023-07-16T10:04:17;93628.59;;;31.47;74.83
12475;BME280;6302;42.624;23.334;2023-07-16T10:06:55;93630.19;;;31.75;72.96
12475;BME280;6302;42.624;23.334;2023-07-16T10:09:33;93622.75;;;31.88;68.84
12475;BME280;6302;42.624;23.334;2023-07-16T10:12:16;93630.16;;;32.12;69.36
12475;BME280;6302;42.624;23.334;2023-07-16T10:14:45;93631.47;;;32.37;68.98
12475;BME280;6302;42.624;23.334;2023-07-16T10:17:13;93626.06;;;32.19;65.65
12475;BME280;6302;42.624;23.334;2023-07-16T10:19:55;93625.50;;;32.07;68.53
12475;BME280;6302;42.624;23.334;2023-07-16T10:22:33;93628.59;;;32.30;70.96
12475;BME280;6302;42.624;23.334;2023-07-16T10:25:01;93619.41;;;32.27;68.32
12475;BME280;6302;42.624;23.334;2023-07-16T10:27:32;93611.22;;;32.40;66.59
12475;BME280;6302;42.624;23.334;2023-07-16T10:29:59;93624.72;;;32.38;67.05
12475;BME280;6302;42.624;23.334;2023-07-16T10:32:30;93609.94;;;32.28;68.46
12475;BME280;6302;42.624;23.334;2023-07-16T10:34:59;93607.03;;;32.39;68.07
12475;BME280;6302;42.624;23.334;2023-07-16T10:37:27;93617.25;;;32.39;66.15
12475;BME280;6302;42.624;23.334;2023-07-16T10:39:57;93612.88;;;32.30;67.06
12475;BME280;6302;42.624;23.334;2023-07-16T10:42:25;93604.44;;;32.28;67.07
12475;BME280;6302;42.624;23.334;2023-07-16T10:44:54;93614.50;;;32.39;66.73
12475;BME280;6302;42.624;23.334;2023-07-16T10:47:24;93600.94;;;32.59;65.55
12475;BME280;6302;42.624;23.334;2023-07-16T10:49:51;93604.06;;;32.50;64.61
12475;BME280;6302;42.624;23.334;2023-07-16T10:52:22;93614.94;;;32.43;61.36
12475;BME280;6302;42.624;23.334;2023-07-16T10:54:50;93595.50;;;32.41;61.23
12475;BME280;6302;42.624;23.334;2023-07-16T10:57:20;93607.59;;;32.51;63.93
12475;BME280;6302;42.624;23.334;2023-07-16T10:59:47;93600.38;;;32.48;61.29
12475;BME280;6302;42.624;23.334;2023-07-16T11:02:16;93599.84;;;32.49;63.33
12475;BME280;6302;42.624;23.334;2023-07-16T11:04:44;93600.03;;;32.38;63.26
12475;BME280;6302;42.624;23.334;2023-07-16T11:07:12;93592.56;;;32.39;62.76
12475;BME280;6302;42.624;23.334;2023-07-16T11:09:45;93602.56;;;32.36;60.48
12475;BME280;6302;42.624;23.334;2023-07-16T11:12:14;93596.88;;;32.47;61.79
12475;BME280;6302;42.624;23.334;2023-07-16T11:14:43;93590.34;;;32.50;62.17
12475;BME280;6302;42.624;23.334;2023-07-16T11:17:17;93591.88;;;32.77;62.67
12475;BME280;6302;42.624;23.334;2023-07-16T11:19:47;93589.75;;;32.84;60.02
12475;BME280;6302;42.624;23.334;2023-07-16T11:22:19;93595.44;;;32.99;58.27
12475;BME280;6302;42.624;23.334;2023-07-16T11:24:48;93587.22;;;33.12;57.41
12475;BME280;6302;42.624;23.334;2023-07-16T11:27:17;93584.75;;;33.21;55.71
12475;BME280;6302;42.624;23.334;2023-07-16T11:29:45;93592.00;;;33.45;56.40
12475;BME280;6302;42.624;23.334;2023-07-16T11:32:13;93583.50;;;33.69;53.76
12475;BME280;6302;42.624;23.334;2023-07-16T11:34:56;93589.00;;;33.69;53.70
12475;BME280;6302;42.624;23.334;2023-07-16T11:37:24;93585.38;;;33.74;52.47
12475;BME280;6302;42.624;23.334;2023-07-16T11:39:56;93580.34;;;33.65;55.31
12475;BME280;6302;42.624;23.334;2023-07-16T11:42:27;93581.84;;;33.87;55.51
12475;BME280;6302;42.624;23.334;2023-07-16T11:44:56;93581.78;;;33.79;53.61
12475;BME280;6302;42.624;23.334;2023-07-16T11:47:23;93584.91;;;33.83;51.49
12475;BME280;6302;42.624;23.334;2023-07-16T11:49:49;93577.31;;;34.10;52.57
12475;BME280;6302;42.624;23.334;2023-07-16T11:52:19;93586.97;;;34.24;49.98
12475;BME280;6302;42.624;23.334;2023-07-16T11:54:47;93583.41;;;34.37;51.23
12475;BME280;6302;42.624;23.334;2023-07-16T11:57:16;93589.19;;;34.26;51.66
12475;BME280;6302;42.624;23.334;2023-07-16T11:59:43;93581.53;;;34.32;49.39
12475;BME280;6302;42.624;23.334;2023-07-16T12:02:12;93579.47;;;34.53;47.64
12475;BME280;6302;42.624;23.334;2023-07-16T12:04:41;93581.28;;;34.50;45.58
12475;BME280;6302;42.624;23.334;2023-07-16T12:07:09;93573.91;;;34.66;46.46
12475;BME280;6302;42.624;23.334;2023-07-16T12:09:36;93569.72;;;34.73;45.44
12475;BME280;6302;42.624;23.334;2023-07-16T12:12:04;93557.06;;;34.49;45.43
12475;BME280;6302;42.624;23.334;2023-07-16T12:14:33;93575.19;;;34.44;45.63
12475;BME280;6302;42.624;23.334;2023-07-16T12:17:01;93576.97;;;34.34;45.71
12475;BME280;6302;42.624;23.334;2023-07-16T12:19:29;93571.97;;;34.33;46.24
12475;BME280;6302;42.624;23.334;2023-07-16T12:21:58;93570.91;;;34.36;49.02
12475;BME280;6302;42.624;23.334;2023-07-16T12:24:25;93557.44;;;34.53;50.27
12475;BME280;6302;42.624;23.334;2023-07-16T12:26:52;93555.41;;;34.74;50.96
12475;BME280;6302;42.624;23.334;2023-07-16T12:29:19;93563.41;;;34.93;48.98
12475;BME280;6302;42.624;23.334;2023-07-16T12:31:47;93553.16;;;34.65;46.23
12475;BME280;6302;42.624;23.334;2023-07-16T12:34:14;93558.66;;;34.65;48.81
12475;BME280;6302;42.624;23.334;2023-07-16T12:36:40;93553.03;;;34.50;47.15
12475;BME280;6302;42.624;23.334;2023-07-16T12:39:07;93552.66;;;34.46;48.49
12475;BME280;6302;42.624;23.334;2023-07-16T12:41:34;93544.19;;;34.44;46.86
12475;BME280;6302;42.624;23.334;2023-07-16T12:44:01;93551.34;;;34.47;46.28
12475;BME280;6302;42.624;23.334;2023-07-16T12:46:28;93555.91;;;34.44;47.74
12475;BME280;6302;42.624;23.334;2023-07-16T12:48:56;93552.97;;;34.42;48.77
12475;BME280;6302;42.624;23.334;2023-07-16T12:51:23;93554.78;;;34.60;43.19
12475;BME280;6302;42.624;23.334;2023-07-16T12:53:49;93544.78;;;34.78;41.34
12475;BME280;6302;42.624;23.334;2023-07-16T12:56:16;93540.41;;;34.83;41.42
12475;BME280;6302;42.624;23.334;2023-07-16T12:58:43;93549.06;;;34.94;41.92